createdAt,value
2024-01-20T00:01:02.929Z,40.30
2024-01-20T00:03:30.460Z,42.67
2024-01-20T00:05:57.810Z,40.07
2024-01-20T00:08:24.885Z,38.80
2024-01-20T00:10:52.084Z,42.67
2024-01-20T00:13:19.750Z,43.53
2024-01-20T00:15:46.991Z,42.83
2024-01-20T00:18:14.257Z,37.23
2024-01-20T00:20:41.602Z,45.47
2024-01-20T00:23:08.585Z,50.93
2024-01-20T00:25:35.535Z,51.70
2024-01-20T00:28:04.868Z,47.30
2024-01-20T00:30:34.673Z,53.58
2024-01-20T00:33:02.557Z,48.00
2024-01-20T00:35:29.673Z,48.93
2024-01-20T00:37:57.115Z,44.57
2024-01-20T00:40:24.101Z,43.47
2024-01-20T00:42:53.925Z,42.50
2024-01-20T00:45:21.010Z,46.00
2024-01-20T00:47:47.994Z,42.20
2024-01-20T00:50:15.099Z,46.37
2024-01-20T00:52:42.085Z,42.63
2024-01-20T00:55:09.236Z,47.77
2024-01-20T00:57:36.189Z,49.13
2024-01-20T01:00:09.468Z,46.23
2024-01-20T01:02:40.152Z,44.00
2024-01-20T01:05:07.682Z,49.43
2024-01-20T01:07:35.549Z,51.33
2024-01-20T01:10:07.990Z,47.47
2024-01-20T01:12:35.523Z,53.50
2024-01-20T01:15:02.670Z,45.90
2024-01-20T01:17:31.158Z,51.67
2024-01-20T01:19:58.345Z,59.63
2024-01-20T01:22:25.379Z,57.73
2024-01-20T01:24:54.987Z,60.20
2024-01-20T01:27:21.960Z,47.90
2024-01-20T01:29:48.921Z,50.60
2024-01-20T01:32:15.952Z,44.20
2024-01-20T01:34:43.022Z,46.40
2024-01-20T01:37:10.019Z,45.60
2024-01-20T01:39:37.020Z,42.60
2024-01-20T01:42:04.262Z,42.03
2024-01-20T01:44:31.194Z,47.70
2024-01-20T01:46:58.193Z,48.60
2024-01-20T01:49:25.262Z,45.37
2024-01-20T01:51:52.915Z,46.30
2024-01-20T01:54:20.959Z,45.27
2024-01-20T01:56:51.718Z,52.23
2024-01-20T01:59:20.520Z,46.37
2024-01-20T02:01:47.565Z,49.97
2024-01-20T02:04:14.602Z,49.93
2024-01-20T02:06:42.036Z,48.67
2024-01-20T02:09:11.342Z,47.63
2024-01-20T02:11:39.512Z,47.93
2024-01-20T02:14:07.535Z,53.53
2024-01-20T02:16:34.490Z,47.27
2024-01-20T02:19:06.398Z,48.73
2024-01-20T02:21:34.138Z,44.90
2024-01-20T02:24:01.774Z,43.90
2024-01-20T02:26:29.680Z,40.13
2024-01-20T02:28:56.699Z,42.23
2024-01-20T02:31:23.662Z,41.13
2024-01-20T02:33:50.838Z,44.17
2024-01-20T02:36:17.964Z,46.33
2024-01-20T02:38:45.057Z,46.70
2024-01-20T02:41:13.030Z,51.67
2024-01-20T02:43:39.952Z,41.13
2024-01-20T02:46:07.149Z,43.33
2024-01-20T02:48:34.306Z,43.60
2024-01-20T02:51:01.808Z,43.27
2024-01-20T02:53:29.334Z,43.17
2024-01-20T02:55:56.349Z,40.70
2024-01-20T02:58:23.344Z,42.27
2024-01-20T03:00:50.408Z,39.63
2024-01-20T03:03:17.528Z,37.70
2024-01-20T03:05:47.111Z,44.27
2024-01-20T03:08:14.068Z,36.20
2024-01-20T03:10:41.067Z,44.57
2024-01-20T03:13:07.997Z,38.97
2024-01-20T03:15:35.030Z,40.67
2024-01-20T03:18:02.068Z,37.63
2024-01-20T03:20:29.702Z,38.40
2024-01-20T03:22:56.609Z,37.50
2024-01-20T03:25:23.553Z,36.13
2024-01-20T03:27:50.531Z,34.53
2024-01-20T03:30:17.614Z,30.07
2024-01-20T03:32:44.720Z,37.20
2024-01-20T03:35:11.773Z,39.40
2024-01-20T03:37:38.746Z,36.10
2024-01-20T03:40:06.297Z,36.67
2024-01-20T03:42:33.360Z,30.63
2024-01-20T03:45:00.446Z,35.77
2024-01-20T03:47:27.392Z,29.80
2024-01-20T03:49:54.652Z,27.53
2024-01-20T03:52:21.623Z,30.33
2024-01-20T03:54:48.554Z,26.67
2024-01-20T03:57:15.479Z,26.00
2024-01-20T03:59:42.449Z,33.57
2024-01-20T04:02:11.525Z,32.60
2024-01-20T04:04:39.133Z,32.50
2024-01-20T04:07:07.044Z,34.67
2024-01-20T04:09:34.001Z,33.13
2024-01-20T04:12:01.166Z,32.97
2024-01-20T04:14:28.189Z,33.20
2024-01-20T04:16:55.070Z,32.47
2024-01-20T04:19:22.059Z,29.00
2024-01-20T04:21:49.255Z,31.73
2024-01-20T04:24:16.211Z,34.93
2024-01-20T04:26:43.155Z,30.17
2024-01-20T04:29:10.091Z,37.03
2024-01-20T04:31:36.984Z,28.13
2024-01-20T04:34:04.078Z,32.67
2024-01-20T04:36:31.092Z,35.27
2024-01-20T04:38:58.264Z,37.57
2024-01-20T04:41:25.213Z,32.07
2024-01-20T04:43:52.153Z,40.20
2024-01-20T04:46:19.279Z,41.07
2024-01-20T04:48:46.457Z,31.97
2024-01-20T04:51:13.560Z,35.60
2024-01-20T04:53:40.487Z,38.33
2024-01-20T04:56:07.662Z,30.00
2024-01-20T04:58:34.727Z,31.97
2024-01-20T05:01:01.682Z,32.13
2024-01-20T05:03:28.780Z,27.60
2024-01-20T05:05:55.984Z,31.47
2024-01-20T05:08:22.932Z,37.73
2024-01-20T05:10:49.858Z,31.57
2024-01-20T05:13:16.749Z,28.57
2024-01-20T05:15:43.745Z,34.57
2024-01-20T05:18:10.976Z,38.03
2024-01-20T05:20:38.993Z,30.97
2024-01-20T05:23:05.924Z,29.40
2024-01-20T05:25:32.843Z,32.03
2024-01-20T05:27:59.748Z,31.20
2024-01-20T05:30:26.809Z,25.97
2024-01-20T05:32:53.842Z,31.43
2024-01-20T05:35:20.913Z,31.90
2024-01-20T05:37:47.948Z,29.97
2024-01-20T05:40:15.127Z,32.00
2024-01-20T05:42:42.050Z,30.63
2024-01-20T05:45:10.757Z,30.70
2024-01-20T05:47:38.081Z,30.33
2024-01-20T05:50:05.572Z,30.10
2024-01-20T05:52:32.532Z,24.67
2024-01-20T05:54:59.605Z,24.67
2024-01-20T05:57:26.565Z,26.13
2024-01-20T05:59:53.554Z,30.03
2024-01-20T06:02:20.537Z,31.77
2024-01-20T06:04:47.476Z,32.47
2024-01-20T06:07:14.382Z,36.57
2024-01-20T06:09:41.415Z,33.33
2024-01-20T06:12:08.810Z,30.63
2024-01-20T06:14:36.874Z,36.07
2024-01-20T06:17:03.926Z,35.93
2024-01-20T06:19:30.903Z,33.07
2024-01-20T06:21:57.886Z,32.00
2024-01-20T06:24:25.367Z,28.40
2024-01-20T06:26:52.310Z,26.43
2024-01-20T06:29:19.215Z,28.77
2024-01-20T06:31:46.412Z,31.30
2024-01-20T06:34:13.400Z,28.60
2024-01-20T06:36:40.386Z,28.07
2024-01-20T06:39:07.411Z,38.47
2024-01-20T06:41:34.423Z,34.30
2024-01-20T06:44:01.330Z,35.20
2024-01-20T06:46:28.305Z,34.97
2024-01-20T06:48:55.421Z,36.73
2024-01-20T06:51:26.998Z,32.67
2024-01-20T06:53:58.708Z,42.15
2024-01-20T06:56:26.326Z,29.42
2024-01-20T06:58:57.477Z,29.47
2024-01-20T07:01:24.799Z,35.38
2024-01-20T07:03:52.151Z,34.87
2024-01-20T07:06:26.502Z,33.13
2024-01-20T07:08:53.958Z,34.07
2024-01-20T07:11:20.980Z,36.30
2024-01-20T07:13:48.056Z,34.23
2024-01-20T07:16:16.936Z,36.57
2024-01-20T07:18:43.945Z,37.53
2024-01-20T07:21:10.953Z,34.33
2024-01-20T07:23:37.932Z,29.10
2024-01-20T07:26:06.297Z,33.67
2024-01-20T07:28:33.342Z,31.67
2024-01-20T07:31:00.294Z,32.30
2024-01-20T07:33:27.391Z,34.33
2024-01-20T07:35:54.456Z,33.23
2024-01-20T07:38:21.497Z,31.50
2024-01-20T07:40:48.444Z,27.80
2024-01-20T07:43:16.121Z,34.63
2024-01-20T07:45:43.103Z,27.53
2024-01-20T07:48:10.165Z,34.77
2024-01-20T07:50:37.266Z,30.73
2024-01-20T07:53:06.330Z,35.83
2024-01-20T07:55:33.327Z,38.00
2024-01-20T07:58:00.230Z,34.90
2024-01-20T08:00:27.258Z,37.37
2024-01-20T08:02:54.350Z,34.50
2024-01-20T08:05:21.384Z,30.00
2024-01-20T08:07:48.320Z,34.77
2024-01-20T08:10:15.488Z,36.97
2024-01-20T08:12:42.760Z,34.47
2024-01-20T08:15:10.103Z,34.83
2024-01-20T08:17:37.128Z,41.13
2024-01-20T08:20:04.352Z,31.70
2024-01-20T08:22:31.325Z,35.73
2024-01-20T08:25:00.765Z,29.47
2024-01-20T08:27:27.771Z,29.80
2024-01-20T08:29:54.825Z,28.53
2024-01-20T08:32:22.203Z,32.53
2024-01-20T08:34:49.701Z,26.63
2024-01-20T08:37:16.801Z,35.10
2024-01-20T08:39:43.868Z,33.87
2024-01-20T08:42:11.307Z,30.53
2024-01-20T08:44:38.254Z,31.93
2024-01-20T08:47:07.915Z,34.63
2024-01-20T08:49:35.096Z,27.47
2024-01-20T08:52:02.200Z,24.93
2024-01-20T08:54:29.302Z,28.20
2024-01-20T08:56:56.442Z,32.13
2024-01-20T08:59:23.648Z,31.97
2024-01-20T09:01:51.469Z,32.10
2024-01-20T09:04:18.503Z,31.87
2024-01-20T09:06:45.617Z,27.43
2024-01-20T09:09:13.142Z,29.50
2024-01-20T09:11:40.136Z,29.23
2024-01-20T09:14:07.153Z,31.60
2024-01-20T09:16:34.160Z,35.57
2024-01-20T09:19:01.298Z,33.10
2024-01-20T09:21:28.363Z,29.57
2024-01-20T09:23:55.325Z,33.03
2024-01-20T09:26:22.377Z,31.40
2024-01-20T09:28:49.460Z,33.60
2024-01-20T09:31:16.440Z,29.07
2024-01-20T09:33:45.277Z,29.10
2024-01-20T09:36:12.656Z,27.37
2024-01-20T09:38:39.688Z,25.83
2024-01-20T09:41:11.135Z,24.43
2024-01-20T09:43:40.021Z,27.38
2024-01-20T09:46:10.872Z,28.50
2024-01-20T09:48:38.069Z,28.87
2024-01-20T09:51:07.614Z,25.77
2024-01-20T09:53:36.141Z,24.27
2024-01-20T09:56:03.760Z,29.07
2024-01-20T09:58:34.825Z,27.40
2024-01-20T10:01:02.879Z,28.00
2024-01-20T10:03:31.419Z,34.00
2024-01-20T10:05:59.073Z,32.00
2024-01-20T10:08:26.176Z,27.47
2024-01-20T10:11:05.702Z,27.93
2024-01-20T10:13:32.939Z,32.87
2024-01-20T10:15:59.942Z,29.47
2024-01-20T10:18:27.004Z,28.80
2024-01-20T10:21:04.928Z,25.47
2024-01-20T10:23:37.012Z,35.47
2024-01-20T10:26:06.967Z,33.43
2024-01-20T10:28:34.863Z,27.70
2024-01-20T10:31:11.104Z,35.43
2024-01-20T10:33:38.921Z,34.10
2024-01-20T10:36:11.452Z,31.63
2024-01-20T10:41:09.750Z,27.77
2024-01-20T10:43:41.615Z,32.37
2024-01-20T10:46:40.538Z,22.88
2024-01-20T10:49:11.761Z,25.60
2024-01-20T10:51:39.149Z,29.87
2024-01-20T10:54:10.331Z,29.13
2024-01-20T10:56:37.889Z,27.57
2024-01-20T10:59:12.306Z,28.30
2024-01-20T11:01:42.031Z,27.40
2024-01-20T11:04:09.688Z,26.27
2024-01-20T11:06:37.671Z,27.47
2024-01-20T11:09:07.855Z,31.37
2024-01-20T11:11:36.797Z,26.93
2024-01-20T11:14:04.040Z,26.63
2024-01-20T11:16:33.391Z,26.73
2024-01-20T11:19:12.166Z,27.57
2024-01-20T11:21:39.550Z,27.60
2024-01-20T11:24:08.037Z,25.17
2024-01-20T11:26:36.919Z,26.43
2024-01-20T11:29:06.039Z,28.27
2024-01-20T11:31:33.899Z,27.73
2024-01-20T11:34:07.375Z,27.33
2024-01-20T11:36:35.762Z,25.37
2024-01-20T11:39:04.886Z,28.33
2024-01-20T11:41:32.014Z,26.27
2024-01-20T11:43:58.975Z,25.43
2024-01-20T11:46:26.121Z,24.93
2024-01-20T11:48:54.279Z,23.83
2024-01-20T11:51:22.157Z,23.50
2024-01-20T11:53:49.620Z,23.20
2024-01-20T11:56:17.796Z,23.10
2024-01-20T11:58:45.003Z,27.23
2024-01-20T12:01:15.091Z,28.67
2024-01-20T12:03:42.702Z,23.73
2024-01-20T12:06:12.953Z,21.43
2024-01-20T12:11:22.139Z,23.83
2024-01-20T12:13:49.988Z,22.87
2024-01-20T12:16:18.233Z,25.30
2024-01-20T12:18:45.606Z,20.07
2024-01-20T12:21:12.795Z,26.87
2024-01-20T12:23:40.857Z,24.63
2024-01-20T12:26:14.816Z,21.10
2024-01-20T12:28:46.624Z,23.10
2024-01-20T12:31:16.256Z,26.02
2024-01-20T12:33:45.256Z,27.10
2024-01-20T12:36:12.729Z,23.33
2024-01-20T12:38:39.646Z,25.67
2024-01-20T12:41:09.270Z,22.10
2024-01-20T12:43:36.187Z,28.67
2024-01-20T12:46:03.178Z,23.73
2024-01-20T12:48:30.198Z,23.63
2024-01-20T12:50:57.834Z,24.70
2024-01-20T12:53:24.869Z,23.37
2024-01-20T12:55:51.818Z,20.93
2024-01-20T12:58:18.812Z,24.97
2024-01-20T13:00:46.246Z,29.80
2024-01-20T13:03:13.562Z,24.60
2024-01-20T13:05:44.721Z,22.80
2024-01-20T13:08:11.860Z,24.83
2024-01-20T13:10:38.818Z,24.17
2024-01-20T13:13:05.955Z,26.57
2024-01-20T13:15:33.012Z,24.50
2024-01-20T13:18:00.118Z,23.10
2024-01-20T13:20:27.080Z,21.03
2024-01-20T13:22:54.760Z,21.77
2024-01-20T13:25:21.716Z,25.73
2024-01-20T13:27:49.087Z,22.35
2024-01-20T13:30:16.170Z,32.03
2024-01-20T13:32:43.218Z,25.50
2024-01-20T13:35:10.662Z,24.63
2024-01-20T13:37:37.582Z,26.73
2024-01-20T13:40:10.302Z,26.33
2024-01-20T13:42:39.157Z,25.53
2024-01-20T13:45:08.475Z,26.10
2024-01-20T13:47:37.246Z,26.80
2024-01-20T13:50:07.837Z,22.67
2024-01-20T13:52:34.918Z,28.17
2024-01-20T13:55:01.867Z,21.77
2024-01-20T13:57:28.869Z,21.57
2024-01-20T13:59:55.830Z,20.63
2024-01-20T14:02:22.830Z,18.47
2024-01-20T14:04:49.892Z,19.90
2024-01-20T14:07:16.916Z,27.25
2024-01-20T14:09:44.061Z,24.70
2024-01-20T14:12:11.125Z,24.40
2024-01-20T14:14:38.125Z,23.40
2024-01-20T14:17:05.650Z,26.53
2024-01-20T14:19:32.798Z,18.57
2024-01-20T14:21:59.928Z,20.30
2024-01-20T14:24:27.979Z,17.70
2024-01-20T14:26:55.097Z,19.03
2024-01-20T14:29:22.009Z,15.43
2024-01-20T14:31:52.751Z,16.73
2024-01-20T14:34:21.136Z,16.73
2024-01-20T14:36:49.807Z,16.13
2024-01-20T14:39:19.822Z,22.17
2024-01-20T14:41:48.659Z,20.10
2024-01-20T14:44:15.999Z,24.27
2024-01-20T14:46:43.364Z,18.60
2024-01-20T14:49:11.324Z,18.70
2024-01-20T14:51:38.526Z,17.17
2024-01-20T14:54:05.898Z,16.17
2024-01-20T14:56:37.169Z,13.23
2024-01-20T14:59:04.574Z,17.75
2024-01-20T15:01:32.128Z,13.83
2024-01-20T15:03:59.108Z,12.67
2024-01-20T15:06:27.754Z,14.87
2024-01-20T15:08:55.676Z,13.63
2024-01-20T15:11:23.081Z,14.07
2024-01-20T15:13:50.297Z,14.95
2024-01-20T15:16:17.734Z,16.07
2024-01-20T15:18:44.840Z,12.45
2024-01-20T15:21:11.894Z,14.40
2024-01-20T15:23:39.332Z,14.77
2024-01-20T15:26:09.419Z,13.73
2024-01-20T15:28:36.571Z,14.90
2024-01-20T15:31:03.639Z,15.00
2024-01-20T15:33:30.649Z,11.30
2024-01-20T15:35:57.625Z,11.25
2024-01-20T15:38:24.570Z,13.00
2024-01-20T15:40:51.842Z,12.13
2024-01-20T15:43:19.464Z,11.47
2024-01-20T15:45:46.434Z,9.13
2024-01-20T15:48:13.536Z,11.43
2024-01-20T15:50:40.611Z,14.80
2024-01-20T15:53:07.539Z,13.47
2024-01-20T15:55:34.470Z,13.67
2024-01-20T15:58:01.497Z,13.00
2024-01-20T16:00:28.522Z,11.30
2024-01-20T16:02:55.462Z,12.57
2024-01-20T16:05:22.671Z,10.80
2024-01-20T16:07:49.958Z,8.90
2024-01-20T16:10:16.884Z,8.93
2024-01-20T16:12:43.815Z,10.73
2024-01-20T16:15:12.781Z,10.27
2024-01-20T16:17:42.206Z,10.73
2024-01-20T16:20:11.933Z,7.40
2024-01-20T16:22:39.541Z,8.17
2024-01-20T16:25:09.343Z,9.37
2024-01-20T16:27:36.367Z,7.60
2024-01-20T16:30:03.565Z,7.50
2024-01-20T16:32:30.518Z,7.87
2024-01-20T16:34:57.482Z,7.97
2024-01-20T16:37:24.421Z,6.97
2024-01-20T16:39:51.714Z,7.07
2024-01-20T16:42:18.790Z,6.23
2024-01-20T16:44:45.732Z,7.83
2024-01-20T16:47:12.708Z,6.23
2024-01-20T16:49:39.787Z,7.17
2024-01-20T16:52:09.796Z,6.90
2024-01-20T16:54:36.736Z,9.03
2024-01-20T16:57:07.951Z,8.50
2024-01-20T16:59:41.240Z,8.77
2024-01-20T17:02:08.243Z,7.87
2024-01-20T17:04:35.375Z,7.10
2024-01-20T17:07:02.722Z,7.80
2024-01-20T17:09:29.643Z,7.73
2024-01-20T17:11:56.648Z,6.23
2024-01-20T17:14:25.863Z,7.43
2024-01-20T17:16:52.911Z,6.10
2024-01-20T17:19:21.355Z,7.43
2024-01-20T17:21:48.380Z,7.67
2024-01-20T17:24:15.846Z,9.60
2024-01-20T17:26:42.958Z,10.50
2024-01-20T17:29:10.569Z,9.10
2024-01-20T17:31:39.049Z,9.03
2024-01-20T17:34:06.241Z,7.97
2024-01-20T17:36:33.641Z,8.67
2024-01-20T17:39:01.602Z,7.30
2024-01-20T17:41:28.661Z,8.03
2024-01-20T17:43:55.611Z,7.27
2024-01-20T17:46:22.515Z,8.13
2024-01-20T17:48:49.772Z,7.83
2024-01-20T17:51:17.009Z,10.30
2024-01-20T17:53:44.062Z,10.07
2024-01-20T17:56:11.055Z,8.10
2024-01-20T17:58:38.080Z,8.53
2024-01-20T18:01:06.241Z,9.90
2024-01-20T18:03:34.280Z,6.77
2024-01-20T18:06:01.712Z,10.50
2024-01-20T18:08:28.868Z,9.93
2024-01-20T18:10:55.940Z,11.07
2024-01-20T18:13:23.522Z,13.00
2024-01-20T18:15:50.481Z,10.97
2024-01-20T18:18:17.851Z,9.23
2024-01-20T18:20:44.934Z,9.47
2024-01-20T18:23:12.044Z,9.50
2024-01-20T18:25:39.152Z,10.03
2024-01-20T18:28:07.419Z,9.33
2024-01-20T18:30:35.469Z,9.10
2024-01-20T18:33:02.666Z,9.30
2024-01-20T18:35:31.276Z,11.07
2024-01-20T18:37:58.302Z,8.23
2024-01-20T18:40:25.312Z,7.37
2024-01-20T18:42:52.499Z,10.07
2024-01-20T18:45:19.868Z,7.00
2024-01-20T18:47:47.172Z,7.27
2024-01-20T18:50:14.851Z,9.13
2024-01-20T18:52:41.822Z,6.93
2024-01-20T18:55:09.813Z,8.47
2024-01-20T18:57:37.275Z,10.23
2024-01-20T19:00:05.604Z,10.67
2024-01-20T19:02:32.940Z,9.63
2024-01-20T19:05:00.024Z,7.23
2024-01-20T19:07:27.142Z,7.83
2024-01-20T19:09:54.085Z,6.63
2024-01-20T19:12:21.429Z,6.37
2024-01-20T19:14:51.577Z,8.53
2024-01-20T19:17:18.623Z,8.07
2024-01-20T19:19:45.930Z,8.13
2024-01-20T19:22:13.336Z,7.77
2024-01-20T19:24:40.479Z,7.77
2024-01-20T19:27:11.162Z,7.23
2024-01-20T19:29:38.390Z,7.00
2024-01-20T19:32:05.870Z,7.27
2024-01-20T19:34:32.993Z,7.57
2024-01-20T19:37:00.126Z,5.60
2024-01-20T19:39:27.244Z,6.00
2024-01-20T19:41:54.739Z,4.23
2024-01-20T19:44:22.676Z,5.03
2024-01-20T19:46:49.802Z,5.93
2024-01-20T19:49:22.752Z,4.80
2024-01-20T19:51:50.161Z,5.80
2024-01-20T19:54:17.279Z,5.47
2024-01-20T19:56:45.069Z,3.07
2024-01-20T19:59:13.945Z,5.07
2024-01-20T20:01:45.665Z,4.07
2024-01-20T20:04:17.394Z,4.45
2024-01-20T20:06:46.504Z,3.25
2024-01-20T20:09:17.441Z,4.93
2024-01-20T20:11:44.553Z,5.40
2024-01-20T20:14:13.067Z,3.87
2024-01-20T20:16:41.281Z,3.97
2024-01-20T20:19:08.794Z,4.67
2024-01-20T20:21:36.046Z,4.57
2024-01-20T20:24:03.097Z,5.17
2024-01-20T20:26:31.090Z,4.23
2024-01-20T20:28:58.007Z,5.43
2024-01-20T20:31:28.325Z,4.77
2024-01-20T20:33:55.684Z,5.40
2024-01-20T20:36:22.936Z,5.00
2024-01-20T20:38:50.032Z,4.30
2024-01-20T20:41:17.009Z,4.17
2024-01-20T20:43:44.012Z,4.40
2024-01-20T20:46:11.036Z,6.37
2024-01-20T20:48:38.853Z,4.33
2024-01-20T20:51:06.039Z,5.23
2024-01-20T20:53:33.181Z,4.43
2024-01-20T20:56:00.380Z,5.57
2024-01-20T20:58:27.368Z,5.53
2024-01-20T21:00:54.424Z,5.90
2024-01-20T21:03:21.942Z,5.70
2024-01-20T21:05:49.211Z,5.90
2024-01-20T21:08:16.309Z,6.10
2024-01-20T21:10:43.512Z,5.23
2024-01-20T21:13:11.456Z,8.20
2024-01-20T21:15:39.210Z,6.30
2024-01-20T21:18:08.800Z,5.57
2024-01-20T21:20:36.051Z,5.77
2024-01-20T21:23:04.193Z,6.37
2024-01-20T21:25:31.485Z,4.60
2024-01-20T21:27:59.900Z,4.00
2024-01-20T21:30:28.460Z,4.20
2024-01-20T21:32:55.848Z,6.27
2024-01-20T21:35:23.098Z,5.00
2024-01-20T21:37:51.385Z,3.57
2024-01-20T21:40:18.477Z,4.97
2024-01-20T21:42:48.465Z,4.53
2024-01-20T21:45:15.767Z,3.80
2024-01-20T21:47:42.835Z,6.07
2024-01-20T21:50:09.965Z,4.20
2024-01-20T21:52:36.903Z,5.50
2024-01-20T21:55:04.961Z,4.23
2024-01-20T21:57:34.971Z,4.67
2024-01-20T22:00:02.018Z,4.63
2024-01-20T22:02:39.319Z,5.07
2024-01-20T22:05:09.233Z,4.10
2024-01-20T22:07:36.609Z,6.10
2024-01-20T22:10:04.598Z,7.53
2024-01-20T22:12:31.842Z,4.73
2024-01-20T22:14:58.869Z,6.10
2024-01-20T22:17:25.993Z,5.17
2024-01-20T22:19:53.356Z,4.10
2024-01-20T22:22:20.973Z,5.60
2024-01-20T22:24:48.041Z,5.83
2024-01-20T22:27:15.150Z,7.60
2024-01-20T22:29:42.170Z,6.17
2024-01-20T22:32:09.195Z,5.13
2024-01-20T22:34:36.239Z,5.40
2024-01-20T22:37:03.345Z,4.23
2024-01-20T22:39:30.616Z,6.77
2024-01-20T22:41:57.565Z,4.47
2024-01-20T22:44:24.497Z,4.20
2024-01-20T22:46:51.502Z,4.47
2024-01-20T22:49:34.152Z,6.80
2024-01-20T22:52:01.365Z,5.63
2024-01-20T22:54:29.169Z,5.67
2024-01-20T22:56:56.365Z,5.70
2024-01-20T22:59:23.284Z,5.53
2024-01-20T23:01:50.305Z,4.73
2024-01-20T23:04:17.757Z,6.20
2024-01-20T23:06:46.820Z,6.43
2024-01-20T23:09:14.184Z,4.13
2024-01-20T23:11:41.216Z,5.40
2024-01-20T23:14:08.367Z,4.47
2024-01-20T23:16:35.433Z,4.97
2024-01-20T23:19:02.441Z,5.67
2024-01-20T23:21:29.437Z,3.83
2024-01-20T23:23:56.458Z,5.47
2024-01-20T23:26:23.417Z,4.43
2024-01-20T23:28:50.606Z,6.83
2024-01-20T23:31:17.520Z,5.00
2024-01-20T23:33:44.587Z,4.30
2024-01-20T23:36:13.279Z,4.60
2024-01-20T23:38:40.373Z,5.53
2024-01-20T23:41:07.382Z,4.20
2024-01-20T23:43:34.419Z,4.93
2024-01-20T23:46:03.107Z,5.70
2024-01-20T23:48:30.372Z,4.17
2024-01-20T23:50:57.314Z,4.60
2024-01-20T23:53:24.294Z,3.80
2024-01-20T23:55:51.239Z,3.80
2024-01-20T23:58:18.464Z,4.60
